sensor_id;sensor_type;location;lat;lon;timestamp;pressure;altitude;pressure_sealevel;temperature;humidity
48976;BME280;34791;52.752;8.346;2023-04-10T00:01:13;149120.22;;;6.62;100.00
48976;BME280;34791;52.752;8.346;2023-04-10T00:03:39;149094.38;;;6.52;100.00
48976;BME280;34791;52.752;8.346;2023-04-10T00:06:05;149071.19;;;6.42;100.00
48976;BME280;34791;52.752;8.346;2023-04-10T00:08:31;149078.94;;;6.45;100.00
48976;BME280;34791;52.752;8.346;2023-04-10T00:10:57;149046.66;;;6.33;100.00
48976;BME280;34791;52.752;8.346;2023-04-10T00:13:22;149009.25;;;6.18;100.00
48976;BME280;34791;52.752;8.346;2023-04-10T00:15:48;148934.34;;;5.88;100.00
48976;BME280;34791;52.752;8.346;2023-04-10T00:18:15;148900.81;;;5.75;100.00
48976;BME280;34791;52.752;8.346;2023-04-10T00:20:40;148846.66;;;5.54;100.00
48976;BME280;34791;52.752;8.346;2023-04-10T00:23:07;148864.72;;;5.61;100.00
48976;BME280;34791;52.752;8.346;2023-04-10T00:25:33;148880.16;;;5.67;100.00
48976;BME280;34791;52.752;8.346;2023-04-10T00:27:58;148896.97;;;5.74;100.00
48976;BME280;34791;52.752;8.346;2023-04-10T00:30:24;148895.66;;;5.73;100.00
48976;BME280;34791;52.752;8.346;2023-04-10T00:32:50;148894.38;;;5.73;100.00
48976;BME280;34791;52.752;8.346;2023-04-10T00:35:18;148867.28;;;5.62;100.00
48976;BME280;34791;52.752;8.346;2023-04-10T00:37:44;148851.78;;;5.56;100.00
48976;BME280;34791;52.752;8.346;2023-04-10T00:40:09;148845.34;;;5.53;100.00
48976;BME280;34791;52.752;8.346;2023-04-10T00:42:35;148826.03;;;5.46;100.00
48976;BME280;34791;52.752;8.346;2023-04-10T00:45:01;148831.19;;;5.48;100.00
48976;BME280;34791;52.752;8.346;2023-04-10T00:47:27;148846.66;;;5.54;100.00
48976;BME280;34791;52.752;8.346;2023-04-10T00:49:52;148846.66;;;5.54;100.00
48976;BME280;34791;52.752;8.346;2023-04-10T00:52:18;148831.19;;;5.48;100.00
48976;BME280;34791;52.752;8.346;2023-04-10T00:54:44;148828.63;;;5.47;100.00
48976;BME280;34791;52.752;8.346;2023-04-10T00:57:10;148841.50;;;5.52;100.00
48976;BME280;34791;52.752;8.346;2023-04-10T00:59:36;148851.78;;;5.56;100.00
48976;BME280;34791;52.752;8.346;2023-04-10T01:02:05;148853.06;;;5.56;100.00
48976;BME280;34791;52.752;8.346;2023-04-10T01:04:31;148872.44;;;5.64;100.00
48976;BME280;34791;52.752;8.346;2023-04-10T01:07:09;148871.16;;;5.64;100.00
48976;BME280;34791;52.752;8.346;2023-04-10T01:09:52;148875.00;;;5.65;100.00
48976;BME280;34791;52.752;8.346;2023-04-10T01:12:52;148911.13;;;5.79;100.00
48976;BME280;34791;52.752;8.346;2023-04-10T01:15:22;148890.53;;;5.71;100.00
48976;BME280;34791;52.752;8.346;2023-04-10T01:20:38;148868.59;;;5.63;100.00
48976;BME280;34791;52.752;8.346;2023-04-10T01:23:27;148899.53;;;5.75;100.00
48976;BME280;34791;52.752;8.346;2023-04-10T01:26:09;148890.53;;;5.71;100.00
48976;BME280;34791;52.752;8.346;2023-04-10T01:28:52;148891.81;;;5.72;100.00
48976;BME280;34791;52.752;8.346;2023-04-10T01:31:55;148878.88;;;5.67;100.00
48976;BME280;34791;52.752;8.346;2023-04-10T01:34:31;148900.81;;;5.75;100.00
48976;BME280;34791;52.752;8.346;2023-04-10T01:37:02;148920.19;;;5.83;100.00
48976;BME280;34791;52.752;8.346;2023-04-10T01:39:29;148918.91;;;5.82;100.00
48976;BME280;34791;52.752;8.346;2023-04-10T01:41:56;148925.34;;;5.85;100.00
48976;BME280;34791;52.752;8.346;2023-04-10T01:44:27;148916.28;;;5.81;100.00
48976;BME280;34791;52.752;8.346;2023-04-10T01:46:54;148921.47;;;5.83;100.00
48976;BME280;34791;52.752;8.346;2023-04-10T01:49:23;148922.75;;;5.84;100.00
48976;BME280;34791;52.752;8.346;2023-04-10T01:51:50;148895.66;;;5.73;100.00
48976;BME280;34791;52.752;8.346;2023-04-10T01:54:16;148857.00;;;5.58;100.00
48976;BME280;34791;52.752;8.346;2023-04-10T01:56:42;148795.09;;;5.34;100.00
48976;BME280;34791;52.752;8.346;2023-04-10T01:59:08;148789.91;;;5.32;100.00
48976;BME280;34791;52.752;8.346;2023-04-10T02:01:34;148784.75;;;5.29;100.00
48976;BME280;34791;52.752;8.346;2023-04-10T02:04:01;148769.31;;;5.23;100.00
48976;BME280;34791;52.752;8.346;2023-04-10T02:06:36;148775.75;;;5.26;100.00
48976;BME280;34791;52.752;8.346;2023-04-10T02:12:09;148735.78;;;5.10;100.00
48976;BME280;34791;52.752;8.346;2023-04-10T02:14:41;148747.38;;;5.15;100.00
48976;BME280;34791;52.752;8.346;2023-04-10T02:17:08;148764.16;;;5.21;100.00
48976;BME280;34791;52.752;8.346;2023-04-10T02:19:35;148749.94;;;5.16;100.00
48976;BME280;34791;52.752;8.346;2023-04-10T02:22:03;148762.88;;;5.21;100.00
48976;BME280;34791;52.752;8.346;2023-04-10T02:24:31;148766.72;;;5.22;100.00
48976;BME280;34791;52.752;8.346;2023-04-10T02:26:57;148774.47;;;5.25;100.00
48976;BME280;34791;52.752;8.346;2023-04-10T02:29:23;148789.91;;;5.32;100.00
48976;BME280;34791;52.752;8.346;2023-04-10T02:31:48;148797.69;;;5.35;100.00
48976;BME280;34791;52.752;8.346;2023-04-10T02:34:14;148810.53;;;5.40;100.00
48976;BME280;34791;52.752;8.346;2023-04-10T02:36:39;148836.34;;;5.50;100.00
48976;BME280;34791;52.752;8.346;2023-04-10T02:39:05;148835.06;;;5.49;100.00
48976;BME280;34791;52.752;8.346;2023-04-10T02:41:31;148828.63;;;5.47;100.00
48976;BME280;34791;52.752;8.346;2023-04-10T02:43:56;148818.28;;;5.43;100.00
48976;BME280;34791;52.752;8.346;2023-04-10T02:46:22;148838.91;;;5.51;100.00
48976;BME280;34791;52.752;8.346;2023-04-10T02:48:48;148831.19;;;5.48;100.00
48976;BME280;34791;52.752;8.346;2023-04-10T02:51:13;148833.78;;;5.49;100.00
48976;BME280;34791;52.752;8.346;2023-04-10T02:53:39;148807.97;;;5.39;100.00
48976;BME280;34791;52.752;8.346;2023-04-10T02:56:04;148804.09;;;5.37;100.00
48976;BME280;34791;52.752;8.346;2023-04-10T02:58:33;148818.28;;;5.43;100.00
48976;BME280;34791;52.752;8.346;2023-04-10T03:01:00;148796.38;;;5.34;100.00
48976;BME280;34791;52.752;8.346;2023-04-10T03:03:26;148775.75;;;5.26;100.00
48976;BME280;34791;52.752;8.346;2023-04-10T03:05:52;148770.59;;;5.24;100.00
48976;BME280;34791;52.752;8.346;2023-04-10T03:08:17;148770.59;;;5.24;100.00
48976;BME280;34791;52.752;8.346;2023-04-10T03:10:44;148764.16;;;5.21;100.00
48976;BME280;34791;52.752;8.346;2023-04-10T03:13:10;148744.81;;;5.14;100.00
48976;BME280;34791;52.752;8.346;2023-04-10T03:15:36;148742.22;;;5.13;100.00
48976;BME280;34791;52.752;8.346;2023-04-10T03:18:03;148751.25;;;5.16;100.00
48976;BME280;34791;52.752;8.346;2023-04-10T03:20:28;148738.38;;;5.11;100.00
48976;BME280;34791;52.752;8.346;2023-04-10T03:22:54;148756.38;;;5.18;100.00
48976;BME280;34791;52.752;8.346;2023-04-10T03:25:19;148738.38;;;5.11;100.00
48976;BME280;34791;52.752;8.346;2023-04-10T03:27:45;148734.50;;;5.10;100.00
48976;BME280;34791;52.752;8.346;2023-04-10T03:30:11;148725.44;;;5.06;100.00
48976;BME280;34791;52.752;8.346;2023-04-10T03:32:37;148725.44;;;5.06;100.00
48976;BME280;34791;52.752;8.346;2023-04-10T03:35:03;148720.31;;;5.04;100.00
48976;BME280;34791;52.752;8.346;2023-04-10T03:37:29;148698.38;;;4.95;100.00
48976;BME280;34791;52.752;8.346;2023-04-10T03:39:55;148676.50;;;4.87;100.00
48976;BME280;34791;52.752;8.346;2023-04-10T03:42:21;148653.28;;;4.78;100.00
48976;BME280;34791;52.752;8.346;2023-04-10T03:44:47;148664.88;;;4.82;100.00
48976;BME280;34791;52.752;8.346;2023-04-10T03:47:12;148653.28;;;4.78;100.00
48976;BME280;34791;52.752;8.346;2023-04-10T03:49:38;148666.16;;;4.83;100.00
48976;BME280;34791;52.752;8.346;2023-04-10T03:52:03;148682.94;;;4.89;100.00
48976;BME280;34791;52.752;8.346;2023-04-10T03:54:29;60484.78;;;-145.18;100.00
48976;BME280;34791;52.752;8.346;2023-04-10T03:56:54;148684.22;;;4.90;100.00
48976;BME280;34791;52.752;8.346;2023-04-10T03:59:20;148686.78;;;4.91;100.00
48976;BME280;34791;52.752;8.346;2023-04-10T04:01:46;148681.66;;;4.89;100.00
48976;BME280;34791;52.752;8.346;2023-04-10T04:04:11;148658.44;;;4.80;100.00
48976;BME280;34791;52.752;8.346;2023-04-10T04:06:37;148650.72;;;4.77;100.00
48976;BME280;34791;52.752;8.346;2023-04-10T04:09:02;148626.22;;;4.67;100.00
48976;BME280;34791;52.752;8.346;2023-04-10T04:11:28;148643.00;;;4.74;100.00
48976;BME280;34791;52.752;8.346;2023-04-10T04:13:53;148637.81;;;4.71;100.00
48976;BME280;34791;52.752;8.346;2023-04-10T04:16:19;148633.94;;;4.70;100.00
48976;BME280;34791;52.752;8.346;2023-04-10T04:18:44;148640.44;;;4.73;100.00
48976;BME280;34791;52.752;8.346;2023-04-10T04:21:10;148635.22;;;4.70;100.00
48976;BME280;34791;52.752;8.346;2023-04-10T04:23:35;148606.88;;;4.59;100.00
48976;BME280;34791;52.752;8.346;2023-04-10T04:26:01;148577.25;;;4.48;100.00
48976;BME280;34791;52.752;8.346;2023-04-10T04:28:26;148594.00;;;4.54;100.00
48976;BME280;34791;52.752;8.346;2023-04-10T04:30:52;148596.59;;;4.55;100.00
48976;BME280;34791;52.752;8.346;2023-04-10T04:33:17;148594.00;;;4.54;100.00
48976;BME280;34791;52.752;8.346;2023-04-10T04:35:43;148617.22;;;4.63;100.00
48976;BME280;34791;52.752;8.346;2023-04-10T04:38:08;148624.94;;;4.66;100.00
48976;BME280;34791;52.752;8.346;2023-04-10T04:40:34;148649.44;;;4.76;100.00
48976;BME280;34791;52.752;8.346;2023-04-10T04:42:59;148643.00;;;4.74;100.00
48976;BME280;34791;52.752;8.346;2023-04-10T04:45:24;148643.00;;;4.74;100.00
48976;BME280;34791;52.752;8.346;2023-04-10T04:47:50;148672.63;;;4.85;100.00
48976;BME280;34791;52.752;8.346;2023-04-10T04:50:15;148702.28;;;4.97;100.00
48976;BME280;34791;52.752;8.346;2023-04-10T04:52:42;148707.44;;;4.99;100.00
48976;BME280;34791;52.752;8.346;2023-04-10T04:55:08;148730.59;;;5.08;100.00
48976;BME280;34791;52.752;8.346;2023-04-10T04:57:34;148737.09;;;5.11;100.00
48976;BME280;34791;52.752;8.346;2023-04-10T04:59:59;148746.09;;;5.14;100.00
48976;BME280;34791;52.752;8.346;2023-04-10T05:02:25;148747.38;;;5.15;100.00
48976;BME280;34791;52.752;8.346;2023-04-10T05:04:50;148780.88;;;5.28;100.00
48976;BME280;34791;52.752;8.346;2023-04-10T05:07:16;148807.97;;;5.39;100.00
48976;BME280;34791;52.752;8.346;2023-04-10T05:09:41;148826.03;;;5.46;100.00
48976;BME280;34791;52.752;8.346;2023-04-10T05:12:07;148846.66;;;5.54;100.00
48976;BME280;34791;52.752;8.346;2023-04-10T05:14:32;148886.66;;;5.70;100.00
48976;BME280;34791;52.752;8.346;2023-04-10T05:16:57;148921.47;;;5.83;100.00
48976;BME280;34791;52.752;8.346;2023-04-10T05:19:23;148922.75;;;5.84;100.00
48976;BME280;34791;52.752;8.346;2023-04-10T05:21:48;148924.06;;;5.84;100.00
48976;BME280;34791;52.752;8.346;2023-04-10T05:24:14;148944.72;;;5.93;100.00
48976;BME280;34791;52.752;8.346;2023-04-10T05:26:39;148970.50;;;6.03;100.00
48976;BME280;34791;52.752;8.346;2023-04-10T05:29:06;148993.75;;;6.12;100.00
48976;BME280;34791;52.752;8.346;2023-04-10T05:31:32;60484.78;;;6.40;100.00
48976;BME280;34791;52.752;8.346;2023-04-10T05:33:57;60484.78;;;-145.18;100.00
48976;BME280;34791;52.752;8.346;2023-04-10T05:36:23;60484.78;;;-145.18;100.00
48976;BME280;34791;52.752;8.346;2023-04-10T05:38:48;60484.78;;;-145.18;100.00
48976;BME280;34791;52.752;8.346;2023-04-10T05:41:14;60484.78;;;-145.18;100.00
48976;BME280;34791;52.752;8.346;2023-04-10T05:43:39;60484.78;;;-145.18;100.00
48976;BME280;34791;52.752;8.346;2023-04-10T05:46:05;60484.78;;;-145.18;100.00
48976;BME280;34791;52.752;8.346;2023-04-10T05:48:31;60484.78;;;-145.18;100.00
48976;BME280;34791;52.752;8.346;2023-04-10T05:50:56;60484.78;;;-145.18;100.00
48976;BME280;34791;52.752;8.346;2023-04-10T05:53:27;60484.78;;;-145.18;100.00
48976;BME280;34791;52.752;8.346;2023-04-10T05:55:55;60484.78;;;-145.18;100.00
48976;BME280;34791;52.752;8.346;2023-04-10T05:58:21;60484.78;;;-145.18;100.00
48976;BME280;34791;52.752;8.346;2023-04-10T06:00:46;60484.78;;;-145.18;100.00
48976;BME280;34791;52.752;8.346;2023-04-10T06:03:12;60484.78;;;-145.18;100.00
48976;BME280;34791;52.752;8.346;2023-04-10T06:05:37;60484.78;;;-145.18;100.00
48976;BME280;34791;52.752;8.346;2023-04-10T06:08:03;60484.78;;;-145.18;100.00
48976;BME280;34791;52.752;8.346;2023-04-10T06:10:29;60484.78;;;-145.18;100.00
48976;BME280;34791;52.752;8.346;2023-04-10T06:12:55;60484.78;;;-145.18;100.00
48976;BME280;34791;52.752;8.346;2023-04-10T06:15:20;60484.78;;;-145.18;100.00
48976;BME280;34791;52.752;8.346;2023-04-10T06:17:46;60484.78;;;-145.18;100.00
48976;BME280;34791;52.752;8.346;2023-04-10T06:20:11;60484.78;;;-145.18;100.00
48976;BME280;34791;52.752;8.346;2023-04-10T06:22:37;60484.78;;;-145.18;100.00
48976;BME280;34791;52.752;8.346;2023-04-10T06:25:03;60484.78;;;-145.18;100.00
48976;BME280;34791;52.752;8.346;2023-04-10T06:27:29;60484.78;;;-145.18;100.00
48976;BME280;34791;52.752;8.346;2023-04-10T06:29:55;60484.78;;;-145.18;100.00
48976;BME280;34791;52.752;8.346;2023-04-10T06:32:21;60484.78;;;-145.18;100.00
48976;BME280;34791;52.752;8.346;2023-04-10T06:34:46;60484.78;;;-145.18;100.00
48976;BME280;34791;52.752;8.346;2023-04-10T06:37:12;60484.78;;;-145.18;100.00
48976;BME280;34791;52.752;8.346;2023-04-10T06:39:37;60484.78;;;-145.18;100.00
48976;BME280;34791;52.752;8.346;2023-04-10T06:42:03;60484.78;;;-145.18;100.00
48976;BME280;34791;52.752;8.346;2023-04-10T06:44:29;60484.78;;;-145.18;100.00
48976;BME280;34791;52.752;8.346;2023-04-10T06:46:54;60484.78;;;-145.18;100.00
48976;BME280;34791;52.752;8.346;2023-04-10T06:49:20;60484.78;;;-145.18;100.00
48976;BME280;34791;52.752;8.346;2023-04-10T06:51:46;60484.78;;;-145.18;100.00
48976;BME280;34791;52.752;8.346;2023-04-10T06:54:12;60484.78;;;-145.18;100.00
48976;BME280;34791;52.752;8.346;2023-04-10T06:56:38;60484.78;;;-145.18;100.00
48976;BME280;34791;52.752;8.346;2023-04-10T06:59:03;60484.78;;;-145.18;100.00
48976;BME280;34791;52.752;8.346;2023-04-10T07:01:29;60484.78;;;-145.18;100.00
48976;BME280;34791;52.752;8.346;2023-04-10T07:03:54;60484.78;;;-145.18;100.00
48976;BME280;34791;52.752;8.346;2023-04-10T07:06:20;60484.78;;;-145.18;100.00
48976;BME280;34791;52.752;8.346;2023-04-10T07:08:47;60484.78;;;-145.18;100.00
48976;BME280;34791;52.752;8.346;2023-04-10T07:11:13;60484.78;;;-145.18;100.00
48976;BME280;34791;52.752;8.346;2023-04-10T07:13:39;60484.78;;;-145.18;100.00
48976;BME280;34791;52.752;8.346;2023-04-10T07:16:05;60484.78;;;-145.18;100.00
48976;BME280;34791;52.752;8.346;2023-04-10T07:18:32;60484.78;;;-145.18;100.00
48976;BME280;34791;52.752;8.346;2023-04-10T07:20:58;60484.78;;;-145.18;100.00
48976;BME280;34791;52.752;8.346;2023-04-10T07:23:23;60484.78;;;-145.18;100.00
48976;BME280;34791;52.752;8.346;2023-04-10T07:25:49;60484.78;;;-145.18;100.00
48976;BME280;34791;52.752;8.346;2023-04-10T07:28:16;60484.78;;;-145.18;100.00
48976;BME280;34791;52.752;8.346;2023-04-10T07:30:41;60484.78;;;-145.18;100.00
48976;BME280;34791;52.752;8.346;2023-04-10T07:33:07;60484.78;;;-145.18;100.00
48976;BME280;34791;52.752;8.346;2023-04-10T07:35:32;60484.78;;;-145.18;100.00
48976;BME280;34791;52.752;8.346;2023-04-10T07:37:58;60484.78;;;-145.18;100.00
48976;BME280;34791;52.752;8.346;2023-04-10T07:40:23;60484.78;;;-145.18;100.00
48976;BME280;34791;52.752;8.346;2023-04-10T07:42:49;60484.78;;;-145.18;100.00
48976;BME280;34791;52.752;8.346;2023-04-10T07:45:14;60484.78;;;-145.18;100.00
48976;BME280;34791;52.752;8.346;2023-04-10T07:47:40;60484.78;;;-145.18;100.00
48976;BME280;34791;52.752;8.346;2023-04-10T07:50:06;60484.78;;;-145.18;100.00
48976;BME280;34791;52.752;8.346;2023-04-10T07:52:32;60484.78;;;-145.18;100.00
48976;BME280;34791;52.752;8.346;2023-04-10T07:55:01;60484.78;;;-145.18;100.00
48976;BME280;34791;52.752;8.346;2023-04-10T07:57:26;60484.78;;;-145.18;100.00
48976;BME280;34791;52.752;8.346;2023-04-10T07:59:52;60484.78;;;-145.18;100.00
48976;BME280;34791;52.752;8.346;2023-04-10T08:02:17;60484.78;;;-145.18;100.00
48976;BME280;34791;52.752;8.346;2023-04-10T08:04:43;60484.78;;;-145.18;100.00
48976;BME280;34791;52.752;8.346;2023-04-10T08:07:08;60484.78;;;-145.18;100.00
48976;BME280;34791;52.752;8.346;2023-04-10T08:09:34;60484.78;;;-145.18;100.00
48976;BME280;34791;52.752;8.346;2023-04-10T08:11:59;60484.78;;;-145.18;100.00
48976;BME280;34791;52.752;8.346;2023-04-10T08:14:25;60484.78;;;-145.18;100.00
48976;BME280;34791;52.752;8.346;2023-04-10T08:16:50;60484.78;;;-145.18;100.00
48976;BME280;34791;52.752;8.346;2023-04-10T08:19:16;60484.78;;;-145.18;100.00
48976;BME280;34791;52.752;8.346;2023-04-10T08:21:41;60484.78;;;-145.18;100.00
48976;BME280;34791;52.752;8.346;2023-04-10T08:24:07;60484.78;;;-145.18;100.00
48976;BME280;34791;52.752;8.346;2023-04-10T08:26:32;60484.78;;;-145.18;100.00
48976;BME280;34791;52.752;8.346;2023-04-10T08:28:58;60484.78;;;-145.18;100.00
48976;BME280;34791;52.752;8.346;2023-04-10T08:31:25;60484.78;;;-145.18;100.00
48976;BME280;34791;52.752;8.346;2023-04-10T08:33:52;60484.78;;;-145.18;100.00
48976;BME280;34791;52.752;8.346;2023-04-10T08:36:17;60484.78;;;-145.18;100.00
48976;BME280;34791;52.752;8.346;2023-04-10T08:38:44;60484.78;;;-145.18;100.00
48976;BME280;34791;52.752;8.346;2023-04-10T08:41:10;60484.78;;;-145.18;100.00
48976;BME280;34791;52.752;8.346;2023-04-10T08:43:36;60484.78;;;-145.18;100.00
48976;BME280;34791;52.752;8.346;2023-04-10T08:46:02;60484.78;;;-145.18;100.00
48976;BME280;34791;52.752;8.346;2023-04-10T08:48:37;60484.78;;;-145.18;100.00
48976;BME280;34791;52.752;8.346;2023-04-10T08:51:04;60484.78;;;-145.18;100.00
48976;BME280;34791;52.752;8.346;2023-04-10T08:53:33;60484.78;;;-145.18;100.00
48976;BME280;34791;52.752;8.346;2023-04-10T08:56:04;60484.78;;;-145.18;100.00
48976;BME280;34791;52.752;8.346;2023-04-10T08:58:31;60484.78;;;-145.18;100.00
48976;BME280;34791;52.752;8.346;2023-04-10T09:00:57;60484.78;;;-145.18;100.00
48976;BME280;34791;52.752;8.346;2023-04-10T09:03:23;60484.78;;;-145.18;100.00
48976;BME280;34791;52.752;8.346;2023-04-10T09:05:49;60484.78;;;-145.18;100.00
48976;BME280;34791;52.752;8.346;2023-04-10T09:08:15;60484.78;;;-145.18;100.00
48976;BME280;34791;52.752;8.346;2023-04-10T09:10:40;60484.78;;;-145.18;100.00
48976;BME280;34791;52.752;8.346;2023-04-10T09:13:06;60484.78;;;-145.18;100.00
48976;BME280;34791;52.752;8.346;2023-04-10T09:15:54;60484.78;;;-145.18;100.00
48976;BME280;34791;52.752;8.346;2023-04-10T09:18:20;60484.78;;;-145.18;100.00
48976;BME280;34791;52.752;8.346;2023-04-10T09:20:46;60484.78;;;-145.18;100.00
48976;BME280;34791;52.752;8.346;2023-04-10T09:23:19;60484.78;;;-145.18;100.00
48976;BME280;34791;52.752;8.346;2023-04-10T09:25:45;60484.78;;;-145.18;100.00
48976;BME280;34791;52.752;8.346;2023-04-10T09:28:11;60484.78;;;-145.18;100.00
48976;BME280;34791;52.752;8.346;2023-04-10T09:30:38;60484.78;;;-145.18;100.00
48976;BME280;34791;52.752;8.346;2023-04-10T09:33:24;60484.78;;;-145.18;100.00
48976;BME280;34791;52.752;8.346;2023-04-10T09:35:52;60484.78;;;-145.18;100.00
48976;BME280;34791;52.752;8.346;2023-04-10T09:38:19;60484.78;;;-145.18;100.00
48976;BME280;34791;52.752;8.346;2023-04-10T09:40:46;60484.78;;;-145.18;100.00
48976;BME280;34791;52.752;8.346;2023-04-10T09:43:23;60484.78;;;-145.18;100.00
48976;BME280;34791;52.752;8.346;2023-04-10T09:45:53;60484.78;;;-145.18;100.00
48976;BME280;34791;52.752;8.346;2023-04-10T09:48:20;60484.78;;;-145.18;100.00
48976;BME280;34791;52.752;8.346;2023-04-10T09:50:46;60484.78;;;-145.18;100.00
48976;BME280;34791;52.752;8.346;2023-04-10T09:53:17;60484.78;;;-145.18;100.00
48976;BME280;34791;52.752;8.346;2023-04-10T09:55:49;60484.78;;;-145.18;100.00
48976;BME280;34791;52.752;8.346;2023-04-10T09:58:15;60484.78;;;-145.18;100.00
48976;BME280;34791;52.752;8.346;2023-04-10T10:00:45;60484.78;;;-145.18;100.00
48976;BME280;34791;52.752;8.346;2023-04-10T10:03:17;60484.78;;;-145.18;100.00
48976;BME280;34791;52.752;8.346;2023-04-10T10:05:44;60484.78;;;-145.18;100.00
48976;BME280;34791;52.752;8.346;2023-04-10T10:08:12;60484.78;;;-145.18;100.00
48976;BME280;34791;52.752;8.346;2023-04-10T10:10:41;60484.78;;;-145.18;100.00
48976;BME280;34791;52.752;8.346;2023-04-10T10:13:14;60484.78;;;-145.18;100.00
48976;BME280;34791;52.752;8.346;2023-04-10T10:16:42;60484.78;;;-145.18;100.00
48976;BME280;34791;52.752;8.346;2023-04-10T10:18:50;60484.78;;;-145.18;100.00
48976;BME280;34791;52.752;8.346;2023-04-10T10:21:19;60484.78;;;-145.18;100.00
48976;BME280;34791;52.752;8.346;2023-04-10T10:23:47;60484.78;;;-145.18;100.00
48976;BME280;34791;52.752;8.346;2023-04-10T10:26:13;60484.78;;;-145.18;100.00
48976;BME280;34791;52.752;8.346;2023-04-10T10:28:39;60484.78;;;-145.18;100.00
48976;BME280;34791;52.752;8.346;2023-04-10T10:31:06;60484.78;;;-145.18;100.00
48976;BME280;34791;52.752;8.346;2023-04-10T10:33:34;60484.78;;;-145.18;100.00
48976;BME280;34791;52.752;8.346;2023-04-10T10:36:02;60484.78;;;-145.18;100.00
48976;BME280;34791;52.752;8.346;2023-04-10T10:38:27;60484.78;;;-145.18;100.00
48976;BME280;34791;52.752;8.346;2023-04-10T10:41:01;60484.78;;;-145.18;100.00
48976;BME280;34791;52.752;8.346;2023-04-10T10:43:53;60484.78;;;-145.18;100.00
48976;BME280;34791;52.752;8.346;2023-04-10T10:47:21;60484.78;;;-145.18;100.00
48976;BME280;34791;52.752;8.346;2023-04-10T10:49:57;60484.78;;;-145.18;100.00
48976;BME280;34791;52.752;8.346;2023-04-10T10:52:51;60484.78;;;-145.18;100.00
48976;BME280;34791;52.752;8.346;2023-04-10T10:55:38;60484.78;;;-145.18;100.00
48976;BME280;34791;52.752;8.346;2023-04-10T10:58:07;60484.78;;;-145.18;100.00
48976;BME280;34791;52.752;8.346;2023-04-10T11:01:11;60484.78;;;-145.18;100.00
48976;BME280;34791;52.752;8.346;2023-04-10T11:03:37;60484.78;;;-145.18;100.00
48976;BME280;34791;52.752;8.346;2023-04-10T11:06:06;60484.78;;;-145.18;100.00
48976;BME280;34791;52.752;8.346;2023-04-10T11:08:36;60484.78;;;-145.18;100.00
48976;BME280;34791;52.752;8.346;2023-04-10T11:11:21;60484.78;;;-145.18;100.00
48976;BME280;34791;52.752;8.346;2023-04-10T11:14:12;60484.78;;;-145.18;100.00
48976;BME280;34791;52.752;8.346;2023-04-10T11:19:05;60484.78;;;-145.18;100.00
48976;BME280;34791;52.752;8.346;2023-04-10T11:21:32;60484.78;;;-145.18;100.00
48976;BME280;34791;52.752;8.346;2023-04-10T11:24:03;60484.78;;;-145.18;100.00
48976;BME280;34791;52.752;8.346;2023-04-10T11:26:38;60484.78;;;-145.18;100.00
48976;BME280;34791;52.752;8.346;2023-04-10T11:29:31;60484.78;;;-145.18;100.00
48976;BME280;34791;52.752;8.346;2023-04-10T11:32:02;60484.78;;;-145.18;100.00
48976;BME280;34791;52.752;8.346;2023-04-10T11:34:28;60484.78;;;-145.18;100.00
48976;BME280;34791;52.752;8.346;2023-04-10T11:37:01;60484.78;;;-145.18;100.00
48976;BME280;34791;52.752;8.346;2023-04-10T11:39:31;60484.78;;;-145.18;100.00
48976;BME280;34791;52.752;8.346;2023-04-10T11:41:56;60484.78;;;-145.18;100.00
48976;BME280;34791;52.752;8.346;2023-04-10T11:44:32;60484.78;;;-145.18;100.00
48976;BME280;34791;52.752;8.346;2023-04-10T11:47:00;60484.78;;;-145.18;100.00
48976;BME280;34791;52.752;8.346;2023-04-10T11:49:29;60484.78;;;-145.18;100.00
48976;BME280;34791;52.752;8.346;2023-04-10T11:51:55;60484.78;;;-145.18;100.00
48976;BME280;34791;52.752;8.346;2023-04-10T11:54:23;60484.78;;;-145.18;100.00
48976;BME280;34791;52.752;8.346;2023-04-10T11:57:14;60484.78;;;-145.18;100.00
48976;BME280;34791;52.752;8.346;2023-04-10T11:59:48;60484.78;;;-145.18;100.00
48976;BME280;34791;52.752;8.346;2023-04-10T12:02:14;60484.78;;;-145.18;100.00
48976;BME280;34791;52.752;8.346;2023-04-10T12:04:41;60484.78;;;-145.18;100.00
48976;BME280;34791;52.752;8.346;2023-04-10T12:07:07;60484.78;;;-145.18;100.00
48976;BME280;34791;52.752;8.346;2023-04-10T12:09:32;60484.78;;;-145.18;100.00
48976;BME280;34791;52.752;8.346;2023-04-10T12:12:03;60484.78;;;-145.18;100.00
48976;BME280;34791;52.752;8.346;2023-04-10T12:14:36;60484.78;;;-145.18;100.00
48976;BME280;34791;52.752;8.346;2023-04-10T12:17:03;60484.78;;;-145.18;100.00
48976;BME280;34791;52.752;8.346;2023-04-10T12:19:30;60484.78;;;-145.18;100.00
48976;BME280;34791;52.752;8.346;2023-04-10T12:21:57;60484.78;;;-145.18;100.00
48976;BME280;34791;52.752;8.346;2023-04-10T12:24:59;60484.78;;;-145.18;100.00
48976;BME280;34791;52.752;8.346;2023-04-10T12:27:25;60484.78;;;-145.18;100.00
48976;BME280;34791;52.752;8.346;2023-04-10T12:29:53;60484.78;;;-145.18;100.00
48976;BME280;34791;52.752;8.346;2023-04-10T12:32:20;60484.78;;;-145.18;100.00
48976;BME280;34791;52.752;8.346;2023-04-10T12:34:54;60484.78;;;-145.18;100.00
48976;BME280;34791;52.752;8.346;2023-04-10T12:37:23;60484.78;;;-145.18;100.00
48976;BME280;34791;52.752;8.346;2023-04-10T12:39:49;60484.78;;;-145.18;100.00
48976;BME280;34791;52.752;8.346;2023-04-10T12:42:20;60484.78;;;-145.18;100.00
48976;BME280;34791;52.752;8.346;2023-04-10T12:44:56;60484.78;;;-145.18;100.00
48976;BME280;34791;52.752;8.346;2023-04-10T12:47:24;60484.78;;;-145.18;100.00
48976;BME280;34791;52.752;8.346;2023-04-10T12:50:09;60484.78;;;-145.18;100.00
48976;BME280;34791;52.752;8.346;2023-04-10T12:52:37;60484.78;;;-145.18;100.00